createdAt,value
2023-01-04T00:02:21.824Z,3.72
2023-01-04T00:04:16.446Z,3.72
2023-01-04T00:04:48.387Z,4.68
2023-01-04T00:07:14.844Z,4.10
2023-01-04T00:09:16.458Z,4.10
2023-01-04T00:09:41.190Z,4.68
2023-01-04T00:12:07.575Z,4.45
2023-01-04T00:14:16.461Z,4.45
2023-01-04T00:14:34.047Z,3.65
2023-01-04T00:17:00.669Z,3.42
2023-01-04T00:19:16.462Z,3.42
2023-01-04T00:19:27.393Z,10.48
2023-01-04T00:21:53.763Z,8.40
2023-01-04T00:24:16.459Z,8.40
2023-01-04T00:24:20.277Z,3.80
2023-01-04T00:26:46.760Z,4.20
2023-01-04T00:29:13.879Z,3.92
2023-01-04T00:29:16.484Z,3.92
2023-01-04T00:31:40.551Z,3.78
2023-01-04T00:34:07.421Z,3.85
2023-01-04T00:34:16.475Z,3.85
2023-01-04T00:36:34.419Z,4.00
2023-01-04T00:39:08.633Z,4.15
2023-01-04T00:39:16.480Z,4.15
2023-01-04T00:42:00.613Z,4.32
2023-01-04T00:44:16.464Z,4.32
2023-01-04T00:44:30.127Z,3.90
2023-01-04T00:46:57.234Z,4.22
2023-01-04T00:49:16.485Z,4.22
2023-01-04T00:49:24.008Z,3.83
2023-01-04T00:51:50.832Z,8.55
2023-01-04T00:54:18.301Z,4.45
2023-01-04T00:54:18.437Z,4.45
2023-01-04T00:56:45.026Z,4.03
2023-01-04T00:59:16.512Z,4.00
2023-01-04T00:59:16.639Z,4.00
2023-01-04T01:01:45.525Z,5.43
2023-01-04T01:04:15.392Z,5.30
2023-01-04T01:04:16.633Z,5.30
2023-01-04T01:06:42.247Z,4.25
2023-01-04T01:09:09.637Z,3.88
2023-01-04T01:09:16.461Z,3.88
2023-01-04T01:11:37.793Z,4.88
2023-01-04T01:14:04.917Z,4.10
2023-01-04T01:14:16.467Z,4.10
2023-01-04T01:16:53.775Z,4.10
2023-01-04T01:19:16.514Z,4.10
2023-01-04T01:19:18.099Z,4.07
2023-01-04T01:21:46.811Z,4.00
2023-01-04T01:24:19.073Z,3.90
2023-01-04T01:24:19.276Z,3.90
2023-01-04T01:26:46.256Z,4.03
2023-01-04T01:29:14.849Z,3.72
2023-01-04T01:29:16.445Z,3.72
2023-01-04T01:31:42.046Z,4.60
2023-01-04T01:34:08.674Z,3.83
2023-01-04T01:34:16.447Z,3.83
2023-01-04T01:36:35.138Z,4.20
2023-01-04T01:39:01.529Z,4.32
2023-01-04T01:39:16.477Z,4.32
2023-01-04T01:41:32.039Z,4.10
2023-01-04T01:44:03.898Z,4.25
2023-01-04T01:44:16.473Z,4.25
2023-01-04T01:46:50.395Z,8.05
2023-01-04T01:49:33.890Z,4.20
2023-01-04T01:49:34.053Z,4.20
2023-01-04T01:52:04.275Z,4.10
2023-01-04T01:54:16.456Z,4.10
2023-01-04T01:54:37.157Z,3.80
2023-01-04T01:57:06.706Z,4.38
2023-01-04T01:59:16.499Z,4.38
2023-01-04T01:59:35.588Z,4.00
2023-01-04T02:02:02.408Z,4.93
2023-01-04T02:04:16.720Z,4.93
2023-01-04T02:04:29.930Z,5.07
2023-01-04T02:06:58.511Z,5.65
2023-01-04T02:09:16.498Z,5.65
2023-01-04T02:09:25.365Z,4.20
2023-01-04T02:11:51.846Z,4.03
2023-01-04T02:14:16.485Z,4.03
2023-01-04T02:14:29.761Z,7.00
2023-01-04T02:16:56.568Z,4.43
2023-01-04T02:19:16.511Z,4.43
2023-01-04T02:20:07.654Z,4.10
2023-01-04T02:23:05.647Z,4.20
2023-01-04T02:24:16.533Z,4.20
2023-01-04T02:25:44.225Z,3.97
2023-01-04T02:28:39.168Z,4.13
2023-01-04T02:29:16.506Z,4.13
2023-01-04T02:31:39.833Z,4.13
2023-01-04T02:34:45.676Z,6.18
2023-01-04T02:34:45.829Z,6.18
2023-01-04T02:37:38.943Z,3.75
2023-01-04T02:39:16.532Z,3.75
2023-01-04T02:40:29.270Z,4.10
2023-01-04T02:43:25.891Z,4.15
2023-01-04T02:44:16.465Z,4.15
2023-01-04T02:45:56.957Z,4.03
2023-01-04T02:48:44.446Z,3.83
2023-01-04T02:49:16.497Z,3.83
2023-01-04T02:51:28.507Z,3.65
2023-01-04T02:53:58.097Z,4.13
2023-01-04T02:54:16.473Z,4.13
2023-01-04T02:56:39.583Z,3.60
2023-01-04T02:59:27.712Z,3.80
2023-01-04T02:59:27.857Z,3.80
2023-01-04T03:02:39.049Z,4.13
2023-01-04T03:04:16.473Z,4.13
2023-01-04T03:05:40.186Z,4.20
2023-01-04T03:08:36.066Z,4.60
2023-01-04T03:09:16.482Z,4.60
2023-01-04T03:11:30.252Z,4.15
2023-01-04T03:14:31.622Z,4.45
2023-01-04T03:14:32.136Z,4.45
2023-01-04T03:16:55.616Z,4.60
2023-01-04T03:19:16.488Z,4.60
2023-01-04T03:19:46.904Z,4.00
2023-01-04T03:22:34.370Z,4.20
2023-01-04T03:24:16.484Z,4.20
2023-01-04T03:25:20.818Z,4.38
2023-01-04T03:28:11.888Z,4.65
2023-01-04T03:29:16.517Z,4.65
2023-01-04T03:31:06.257Z,4.30
2023-01-04T03:33:51.601Z,4.10
2023-01-04T03:34:16.532Z,4.10
2023-01-04T03:36:30.217Z,3.85
2023-01-04T03:39:40.582Z,4.10
2023-01-04T03:39:40.722Z,4.10
2023-01-04T03:42:35.225Z,4.10
2023-01-04T03:44:16.500Z,4.10
2023-01-04T03:45:41.879Z,4.20
2023-01-04T03:48:34.537Z,4.10
2023-01-04T03:49:16.545Z,4.10
2023-01-04T03:51:15.357Z,4.60
2023-01-04T03:53:59.774Z,4.30
2023-01-04T03:54:16.582Z,4.30
2023-01-04T03:56:29.566Z,4.20
2023-01-04T03:58:56.004Z,4.20
2023-01-04T03:59:16.502Z,4.20
2023-01-04T04:01:25.374Z,3.92
2023-01-04T04:04:11.337Z,4.10
2023-01-04T04:04:16.500Z,4.10
2023-01-04T04:06:56.439Z,4.30
2023-01-04T04:09:16.531Z,4.30
2023-01-04T04:09:22.791Z,4.38
2023-01-04T04:11:49.550Z,4.60
2023-01-04T04:14:15.995Z,3.85
2023-01-04T04:14:16.495Z,3.85
2023-01-04T04:16:42.409Z,4.00
2023-01-04T04:19:09.122Z,4.30
2023-01-04T04:19:16.525Z,4.30
2023-01-04T04:21:36.380Z,4.13
2023-01-04T04:24:02.907Z,4.00
2023-01-04T04:24:16.499Z,4.00
2023-01-04T04:26:29.334Z,4.10
2023-01-04T04:28:55.746Z,4.07
2023-01-04T04:29:16.491Z,4.07
2023-01-04T04:31:22.072Z,4.07
2023-01-04T04:33:48.536Z,4.00
2023-01-04T04:34:16.517Z,4.00
2023-01-04T04:36:15.056Z,4.30
2023-01-04T04:38:41.715Z,4.00
2023-01-04T04:39:16.490Z,4.00
2023-01-04T04:41:31.745Z,4.20
2023-01-04T04:43:58.599Z,4.25
2023-01-04T04:44:16.583Z,4.25
2023-01-04T04:46:25.459Z,3.80
2023-01-04T04:48:51.976Z,3.97
2023-01-04T04:49:16.678Z,3.97
2023-01-04T04:51:18.359Z,4.05
2023-01-04T04:53:44.777Z,4.10
2023-01-04T04:54:16.509Z,4.10
2023-01-04T04:56:11.549Z,4.30
2023-01-04T04:58:38.462Z,4.30
2023-01-04T04:59:16.526Z,4.30
2023-01-04T05:01:05.265Z,4.40
2023-01-04T05:03:31.977Z,3.90
2023-01-04T05:04:16.925Z,3.90
2023-01-04T05:05:58.663Z,3.80
2023-01-04T05:08:45.472Z,4.20
2023-01-04T05:09:16.527Z,4.20
2023-01-04T05:11:13.088Z,4.20
2023-01-04T05:13:39.658Z,4.00
2023-01-04T05:14:16.539Z,4.00
2023-01-04T05:16:07.258Z,4.20
2023-01-04T05:18:33.799Z,3.95
2023-01-04T05:19:16.531Z,3.95
2023-01-04T05:21:00.309Z,4.13
2023-01-04T05:23:29.401Z,5.55
2023-01-04T05:24:16.529Z,5.55
2023-01-04T05:26:01.688Z,4.10
2023-01-04T05:28:28.542Z,3.92
2023-01-04T05:29:16.515Z,3.92
2023-01-04T05:30:55.988Z,4.05
2023-01-04T05:33:28.016Z,4.10
2023-01-04T05:34:21.996Z,4.10
2023-01-04T05:35:56.475Z,4.10
2023-01-04T05:38:23.478Z,4.30
2023-01-04T05:39:16.504Z,4.30
2023-01-04T05:40:50.540Z,4.00
2023-01-04T05:43:18.486Z,4.10
2023-01-04T05:44:16.541Z,4.10
2023-01-04T05:45:49.328Z,4.07
2023-01-04T05:48:15.894Z,4.22
2023-01-04T05:49:16.552Z,4.22
2023-01-04T05:50:42.313Z,3.97
2023-01-04T05:53:08.756Z,4.30
2023-01-04T05:54:21.161Z,4.30
2023-01-04T05:55:35.157Z,4.10
2023-01-04T05:58:01.529Z,4.15
2023-01-04T05:59:16.529Z,4.15
2023-01-04T06:00:30.420Z,4.18
2023-01-04T06:02:57.306Z,4.15
2023-01-04T06:04:16.533Z,4.15
2023-01-04T06:05:25.063Z,4.07
2023-01-04T06:07:52.006Z,4.28
2023-01-04T06:09:16.519Z,4.28
2023-01-04T06:10:19.384Z,4.10
2023-01-04T06:12:48.704Z,4.22
2023-01-04T06:14:16.509Z,4.22
2023-01-04T06:15:15.354Z,4.20
2023-01-04T06:17:41.793Z,4.18
2023-01-04T06:19:16.512Z,4.18
2023-01-04T06:20:09.807Z,4.40
2023-01-04T06:22:40.760Z,4.07
2023-01-04T06:24:16.587Z,4.07
2023-01-04T06:25:08.458Z,4.30
2023-01-04T06:27:37.725Z,4.18
2023-01-04T06:29:16.494Z,4.18
2023-01-04T06:30:04.885Z,4.20
2023-01-04T06:32:31.218Z,4.18
2023-01-04T06:34:16.556Z,4.18
2023-01-04T06:34:57.699Z,4.20
2023-01-04T06:37:24.174Z,4.20
2023-01-04T06:39:16.566Z,4.20
2023-01-04T06:39:50.696Z,4.13
2023-01-04T06:42:36.005Z,4.30
2023-01-04T06:44:16.555Z,4.30
2023-01-04T06:45:11.198Z,4.18
2023-01-04T06:47:46.336Z,4.10
2023-01-04T06:49:17.536Z,4.10
2023-01-04T06:50:19.041Z,4.10
2023-01-04T06:54:20.268Z,10.28
2023-01-04T06:58:05.601Z,4.35
2023-01-04T06:59:16.511Z,4.35
2023-01-04T07:00:31.951Z,4.40
2023-01-04T07:03:13.558Z,3.97
2023-01-04T07:04:16.608Z,3.97
2023-01-04T07:05:43.016Z,4.32
2023-01-04T07:08:09.388Z,4.40
2023-01-04T07:09:16.521Z,4.40
2023-01-04T07:10:36.472Z,4.28
2023-01-04T07:13:03.051Z,4.30
2023-01-04T07:14:16.522Z,4.30
2023-01-04T07:15:38.089Z,4.10
2023-01-04T07:18:07.630Z,4.97
2023-01-04T07:19:16.562Z,4.97
2023-01-04T07:20:34.031Z,4.50
2023-01-04T07:23:00.363Z,4.10
2023-01-04T07:24:16.558Z,4.10
2023-01-04T07:25:26.701Z,4.15
2023-01-04T07:27:53.978Z,4.20
2023-01-04T07:29:16.532Z,4.20
2023-01-04T07:30:22.353Z,4.30
2023-01-04T07:32:50.756Z,4.40
2023-01-04T07:34:16.526Z,4.40
2023-01-04T07:35:17.195Z,4.50
2023-01-04T07:37:43.958Z,4.47
2023-01-04T07:39:16.508Z,4.47
2023-01-04T07:40:11.757Z,4.28
2023-01-04T07:42:38.487Z,4.35
2023-01-04T07:44:16.549Z,4.35
2023-01-04T07:45:06.149Z,3.95
2023-01-04T07:47:32.748Z,5.22
2023-01-04T07:49:17.766Z,5.22
2023-01-04T07:50:00.072Z,4.30
2023-01-04T07:52:27.520Z,4.10
2023-01-04T07:54:16.540Z,4.10
2023-01-04T07:54:53.956Z,4.40
2023-01-04T07:57:20.372Z,4.25
2023-01-04T07:59:16.508Z,4.25
2023-01-04T07:59:46.848Z,4.18
2023-01-04T08:02:13.789Z,4.50
2023-01-04T08:04:16.644Z,4.50
2023-01-04T08:04:40.308Z,4.60
2023-01-04T08:07:06.813Z,4.43
2023-01-04T08:09:16.532Z,4.43
2023-01-04T08:09:33.187Z,4.20
2023-01-04T08:11:59.578Z,4.43
2023-01-04T08:14:16.509Z,4.43
2023-01-04T08:14:26.183Z,4.20
2023-01-04T08:16:52.800Z,4.22
2023-01-04T08:19:16.549Z,4.22
2023-01-04T08:19:21.078Z,4.10
2023-01-04T08:21:48.332Z,5.47
2023-01-04T08:24:17.243Z,4.40
2023-01-04T08:24:17.359Z,4.40
2023-01-04T08:26:44.668Z,4.40
2023-01-04T08:29:12.203Z,4.75
2023-01-04T08:29:16.523Z,4.75
2023-01-04T08:31:39.918Z,4.40
2023-01-04T08:34:08.414Z,4.43
2023-01-04T08:34:16.556Z,4.43
2023-01-04T08:36:43.741Z,4.20
2023-01-04T08:39:10.521Z,4.40
2023-01-04T08:39:16.541Z,4.40
2023-01-04T08:44:16.526Z,4.20
2023-01-04T08:44:37.537Z,4.43
2023-01-04T08:47:04.313Z,4.10
2023-01-04T08:49:16.533Z,4.10
2023-01-04T08:49:30.776Z,4.13
2023-01-04T08:51:57.312Z,4.18
2023-01-04T08:54:16.582Z,4.18
2023-01-04T08:54:23.725Z,4.55
2023-01-04T08:56:50.122Z,6.85
2023-01-04T08:59:18.849Z,4.40
2023-01-04T08:59:19.002Z,4.40
2023-01-04T09:01:46.027Z,4.10
2023-01-04T09:04:13.016Z,4.53
2023-01-04T09:04:16.567Z,4.53
2023-01-04T09:06:40.340Z,4.30
2023-01-04T09:09:06.905Z,4.40
2023-01-04T09:09:16.559Z,4.40
2023-01-04T09:11:33.524Z,4.47
2023-01-04T09:14:07.354Z,4.38
2023-01-04T09:14:16.520Z,4.38
2023-01-04T09:16:35.130Z,4.88
2023-01-04T09:19:01.654Z,4.55
2023-01-04T09:19:21.604Z,4.55
2023-01-04T09:21:28.295Z,4.90
2023-01-04T09:23:57.114Z,4.60
2023-01-04T09:24:16.529Z,4.60
2023-01-04T09:26:24.168Z,4.80
2023-01-04T09:28:52.686Z,4.43
2023-01-04T09:29:16.531Z,4.43
2023-01-04T09:31:21.768Z,4.70
2023-01-04T09:34:13.495Z,5.25
2023-01-04T09:34:17.909Z,5.25
2023-01-04T09:36:34.635Z,5.50
2023-01-04T09:39:00.988Z,4.40
2023-01-04T09:39:22.307Z,4.40
2023-01-04T09:41:30.116Z,8.73
2023-01-04T09:43:56.612Z,7.50
2023-01-04T09:44:16.567Z,7.50
2023-01-04T09:46:51.505Z,5.50
2023-01-04T09:49:16.572Z,5.50
2023-01-04T09:49:28.719Z,4.88
2023-01-04T09:52:11.431Z,4.40
2023-01-04T09:54:16.578Z,4.40
2023-01-04T09:54:54.154Z,4.43
2023-01-04T09:57:28.991Z,4.35
2023-01-04T09:59:16.517Z,4.35
2023-01-04T10:02:58.241Z,4.40
2023-01-04T10:04:16.579Z,4.40
2023-01-04T10:05:28.592Z,7.68
2023-01-04T10:07:55.956Z,4.80
2023-01-04T10:09:16.549Z,4.80
2023-01-04T10:10:46.588Z,4.50
2023-01-04T10:13:26.941Z,5.55
2023-01-04T10:14:16.532Z,5.55
2023-01-04T10:16:06.389Z,4.57
2023-01-04T10:19:28.670Z,4.40
2023-01-04T10:21:40.392Z,4.30
2023-01-04T10:24:15.836Z,4.22
2023-01-04T10:24:16.574Z,4.22
2023-01-04T10:26:46.776Z,5.97
2023-01-04T10:29:38.112Z,4.20
2023-01-04T10:29:38.244Z,4.20
2023-01-04T10:32:20.239Z,4.35
2023-01-04T10:34:19.048Z,4.35
2023-01-04T10:34:48.020Z,4.60
2023-01-04T10:37:26.846Z,4.35
2023-01-04T10:39:16.557Z,4.35
2023-01-04T10:39:57.413Z,4.20
2023-01-04T10:42:34.869Z,4.60
2023-01-04T10:44:16.563Z,4.60
2023-01-04T10:45:31.790Z,4.38
2023-01-04T10:48:19.636Z,4.55
2023-01-04T10:49:16.543Z,4.55
2023-01-04T10:50:59.811Z,4.90
2023-01-04T10:53:38.563Z,4.30
2023-01-04T10:54:16.599Z,4.30
2023-01-04T10:56:27.122Z,4.45
2023-01-04T10:59:03.201Z,4.53
2023-01-04T10:59:16.561Z,4.53
2023-01-04T11:01:35.264Z,4.60
2023-01-04T11:04:14.026Z,4.40
2023-01-04T11:04:16.549Z,4.40
2023-01-04T11:07:05.349Z,4.32
2023-01-04T11:09:21.243Z,4.32
2023-01-04T11:10:01.446Z,4.45
2023-01-04T11:12:27.980Z,4.80
2023-01-04T11:14:16.588Z,4.80
2023-01-04T11:14:54.435Z,4.32
2023-01-04T11:17:24.001Z,17.98
2023-01-04T11:19:16.657Z,17.98
2023-01-04T11:19:50.567Z,4.50
2023-01-04T11:22:28.104Z,4.45
2023-01-04T11:24:31.391Z,4.45
2023-01-04T11:25:33.805Z,4.30
2023-01-04T11:28:00.049Z,4.60
2023-01-04T11:29:16.550Z,4.60
2023-01-04T11:30:35.414Z,4.47
2023-01-04T11:33:10.963Z,4.30
2023-01-04T11:34:16.546Z,4.30
2023-01-04T11:35:42.549Z,4.43
2023-01-04T11:38:15.734Z,4.60
2023-01-04T11:39:16.575Z,4.60
2023-01-04T11:40:53.798Z,4.80
2023-01-04T11:43:22.559Z,4.88
2023-01-04T11:44:16.569Z,4.88
2023-01-04T11:46:05.256Z,4.30
2023-01-04T11:48:41.492Z,4.60
2023-01-04T11:49:16.631Z,4.60
2023-01-04T11:51:17.311Z,4.38
2023-01-04T11:53:43.760Z,4.60
2023-01-04T11:54:16.580Z,4.60
2023-01-04T11:56:21.095Z,4.63
2023-01-04T11:59:13.964Z,4.20
2023-01-04T11:59:24.490Z,4.20
2023-01-04T12:01:47.363Z,4.43
2023-01-04T12:04:22.112Z,4.40
2023-01-04T12:04:22.274Z,4.40
2023-01-04T12:06:56.770Z,4.45
2023-01-04T12:09:16.545Z,4.45
2023-01-04T12:09:23.139Z,4.30
2023-01-04T12:11:52.237Z,4.35
2023-01-04T12:14:16.605Z,4.35
2023-01-04T12:14:24.963Z,4.30
2023-01-04T12:19:16.575Z,11.91
2023-01-04T12:19:22.059Z,4.78
2023-01-04T12:21:52.968Z,4.45
2023-01-04T12:24:16.602Z,4.45
2023-01-04T12:24:26.174Z,4.45
2023-01-04T12:26:53.596Z,4.43
2023-01-04T12:29:16.605Z,4.43
2023-01-04T12:29:22.984Z,4.43
2023-01-04T12:32:07.403Z,4.90
2023-01-04T12:34:16.606Z,4.90
2023-01-04T12:34:34.216Z,5.03
2023-01-04T12:37:05.570Z,4.90
2023-01-04T12:39:16.591Z,4.90
2023-01-04T12:39:44.821Z,4.57
2023-01-04T12:42:24.580Z,4.82
2023-01-04T12:44:16.624Z,4.82
2023-01-04T12:44:52.151Z,4.57
2023-01-04T12:47:37.624Z,4.80
2023-01-04T12:49:16.641Z,4.80
2023-01-04T12:50:15.005Z,5.20
2023-01-04T12:54:16.590Z,4.70
2023-01-04T12:55:33.529Z,4.70
2023-01-04T12:58:01.875Z,4.47
2023-01-04T12:59:25.622Z,4.47
2023-01-04T13:00:49.897Z,4.22
2023-01-04T13:03:17.174Z,4.43
2023-01-04T13:04:16.661Z,4.43
2023-01-04T13:05:57.914Z,4.30
2023-01-04T13:08:25.426Z,4.38
2023-01-04T13:09:16.618Z,4.38
2023-01-04T13:10:55.096Z,5.47
2023-01-04T13:13:31.748Z,4.50
2023-01-04T13:14:16.644Z,4.50
2023-01-04T13:16:13.831Z,4.40
2023-01-04T13:18:52.355Z,4.80
2023-01-04T13:19:16.572Z,4.80
2023-01-04T13:21:38.781Z,4.30
2023-01-04T13:24:23.891Z,4.60
2023-01-04T13:24:24.049Z,4.60
2023-01-04T13:26:51.827Z,4.60
2023-01-04T13:29:16.595Z,4.60
2023-01-04T13:29:25.921Z,4.22
2023-01-04T13:31:58.669Z,4.47
2023-01-04T13:34:16.605Z,4.47
2023-01-04T13:34:38.470Z,5.25
2023-01-04T13:37:15.454Z,4.40
2023-01-04T13:39:16.606Z,4.40
2023-01-04T13:39:48.199Z,4.47
2023-01-04T13:42:31.591Z,4.63
2023-01-04T13:44:16.593Z,4.63
2023-01-04T13:45:35.439Z,4.50
2023-01-04T13:48:05.647Z,4.55
2023-01-04T13:49:16.601Z,4.55
2023-01-04T13:50:47.031Z,4.60
2023-01-04T13:53:25.393Z,4.50
2023-01-04T13:54:16.598Z,4.50
2023-01-04T13:55:57.043Z,4.40
2023-01-04T13:58:29.293Z,4.50
2023-01-04T13:59:16.571Z,4.50
2023-01-04T14:00:58.676Z,4.45
2023-01-04T14:03:32.980Z,4.32
2023-01-04T14:04:16.601Z,4.32
2023-01-04T14:06:20.853Z,4.40
2023-01-04T14:08:56.586Z,4.88
2023-01-04T14:09:16.621Z,4.88
2023-01-04T14:12:06.075Z,4.45
2023-01-04T14:14:16.617Z,4.45
2023-01-04T14:15:14.104Z,4.90
2023-01-04T14:17:53.829Z,5.18
2023-01-04T14:19:16.671Z,5.18
2023-01-04T14:20:20.375Z,4.90
2023-01-04T14:22:46.743Z,4.50
2023-01-04T14:24:28.072Z,4.50
2023-01-04T14:25:34.143Z,4.88
2023-01-04T14:28:18.979Z,5.38
2023-01-04T14:29:16.595Z,5.38
2023-01-04T14:30:47.077Z,7.63
2023-01-04T14:33:20.598Z,5.32
2023-01-04T14:34:16.572Z,5.32
2023-01-04T14:36:03.773Z,4.47
2023-01-04T14:38:30.836Z,4.47
2023-01-04T14:39:16.604Z,4.47
2023-01-04T14:40:58.553Z,4.45
2023-01-04T14:43:36.596Z,4.28
2023-01-04T14:44:16.600Z,4.28
2023-01-04T14:46:03.336Z,4.65
2023-01-04T14:48:30.700Z,4.43
2023-01-04T14:49:16.581Z,4.43
2023-01-04T14:50:59.279Z,4.70
2023-01-04T14:53:25.814Z,4.40
2023-01-04T14:54:23.971Z,4.40
2023-01-04T14:55:54.551Z,4.82
2023-01-04T14:58:21.785Z,4.43
2023-01-04T14:59:16.579Z,4.43
2023-01-04T15:00:48.871Z,4.60
2023-01-04T15:03:15.493Z,4.35
2023-01-04T15:04:16.654Z,4.35
2023-01-04T15:05:45.587Z,4.50
2023-01-04T15:08:12.398Z,4.47
2023-01-04T15:09:16.623Z,4.47
2023-01-04T15:10:39.032Z,5.13
2023-01-04T15:13:05.553Z,4.53
2023-01-04T15:14:16.617Z,4.53
2023-01-04T15:15:35.121Z,4.80
2023-01-04T15:18:01.638Z,4.47
2023-01-04T15:19:16.583Z,4.47
2023-01-04T15:20:28.390Z,4.30
2023-01-04T15:22:54.778Z,4.55
2023-01-04T15:24:16.597Z,4.55
2023-01-04T15:25:21.260Z,4.78
2023-01-04T15:27:48.006Z,4.90
2023-01-04T15:29:16.684Z,4.90
2023-01-04T15:30:14.379Z,4.60
2023-01-04T15:32:41.365Z,4.70
2023-01-04T15:34:16.607Z,4.70
2023-01-04T15:35:08.353Z,4.50
2023-01-04T15:37:34.801Z,4.47
2023-01-04T15:39:16.596Z,4.47
2023-01-04T15:40:03.246Z,4.75
2023-01-04T15:42:48.929Z,4.43
2023-01-04T15:44:16.594Z,4.43
2023-01-04T15:45:15.651Z,4.60
2023-01-04T15:47:42.090Z,4.75
2023-01-04T15:49:17.753Z,4.75
2023-01-04T15:50:09.634Z,4.38
2023-01-04T15:52:38.610Z,4.55
2023-01-04T15:54:16.610Z,4.55
2023-01-04T15:55:05.308Z,4.50
2023-01-04T15:57:32.320Z,4.32
2023-01-04T15:59:16.603Z,4.32
2023-01-04T15:59:58.720Z,4.40
2023-01-04T16:02:25.338Z,4.80
2023-01-04T16:04:16.648Z,4.80
2023-01-04T16:04:51.819Z,4.80
2023-01-04T16:07:18.690Z,4.32
2023-01-04T16:09:16.654Z,4.32
2023-01-04T16:09:45.140Z,4.40
2023-01-04T16:12:30.233Z,4.55
2023-01-04T16:14:16.602Z,4.55
2023-01-04T16:14:56.641Z,5.18
2023-01-04T16:17:23.127Z,4.50
2023-01-04T16:19:16.604Z,4.50
2023-01-04T16:19:49.453Z,4.72
2023-01-04T16:22:15.784Z,4.50
2023-01-04T16:24:44.734Z,4.50
2023-01-04T16:27:34.938Z,4.85
2023-01-04T16:29:16.609Z,4.85
2023-01-04T16:30:07.281Z,5.18
2023-01-04T16:32:35.039Z,4.67
2023-01-04T16:34:16.616Z,4.67
2023-01-04T16:35:01.372Z,5.03
2023-01-04T16:37:28.727Z,4.75
2023-01-04T16:39:17.064Z,4.75
2023-01-04T16:40:10.616Z,5.03
2023-01-04T16:42:37.913Z,4.80
2023-01-04T16:44:16.599Z,4.80
2023-01-04T16:45:05.468Z,4.40
2023-01-04T16:47:42.346Z,4.40
2023-01-04T16:49:16.621Z,4.40
2023-01-04T16:50:12.935Z,4.40
2023-01-04T16:52:40.411Z,5.00
2023-01-04T16:54:16.618Z,5.00
2023-01-04T16:55:07.456Z,4.50
2023-01-04T16:57:33.890Z,4.50
2023-01-04T16:59:16.624Z,4.50
2023-01-04T17:00:00.298Z,6.95
2023-01-04T17:02:26.695Z,4.70
2023-01-04T17:04:16.672Z,4.70
2023-01-04T17:04:59.402Z,4.90
2023-01-04T17:09:16.611Z,11.61
2023-01-04T17:10:02.193Z,4.20
2023-01-04T17:14:16.664Z,4.40
2023-01-04T17:15:41.825Z,4.68
2023-01-04T17:18:01.617Z,4.75
2023-01-04T17:19:16.598Z,4.75
2023-01-04T17:20:27.993Z,4.53
2023-01-04T17:22:54.407Z,5.07
2023-01-04T17:24:16.591Z,5.07
2023-01-04T17:25:20.808Z,4.57
2023-01-04T17:27:47.331Z,5.50
2023-01-04T17:29:16.615Z,5.50
2023-01-04T17:30:13.911Z,4.93
2023-01-04T17:32:40.444Z,4.70
2023-01-04T17:34:22.264Z,4.70
2023-01-04T17:35:07.026Z,4.60
2023-01-04T17:37:33.364Z,5.25
2023-01-04T17:39:16.621Z,5.25
2023-01-04T17:39:59.729Z,4.25
2023-01-04T17:42:26.069Z,4.43
2023-01-04T17:44:16.588Z,4.43
2023-01-04T17:44:52.672Z,5.50
2023-01-04T17:47:19.327Z,4.82
2023-01-04T17:49:23.873Z,4.82
2023-01-04T17:49:45.771Z,5.13
2023-01-04T17:52:18.170Z,5.50
2023-01-04T17:54:16.592Z,5.50
2023-01-04T17:54:47.573Z,5.20
2023-01-04T17:57:13.947Z,5.47
2023-01-04T17:59:17.628Z,5.47
2023-01-04T17:59:40.331Z,4.75
2023-01-04T18:02:06.837Z,5.00
2023-01-04T18:04:16.602Z,5.00
2023-01-04T18:04:33.223Z,4.30
2023-01-04T18:06:59.531Z,5.13
2023-01-04T18:09:20.200Z,5.13
2023-01-04T18:09:27.052Z,14.65
2023-01-04T18:11:53.461Z,12.27
2023-01-04T18:14:16.599Z,12.27
2023-01-04T18:14:19.964Z,10.25
2023-01-04T18:16:59.105Z,7.28
2023-01-04T18:19:16.625Z,7.28
2023-01-04T18:19:28.271Z,12.02
2023-01-04T18:21:55.556Z,5.38
2023-01-04T18:24:35.573Z,5.38
2023-01-04T18:24:38.887Z,5.57
2023-01-04T18:27:21.356Z,5.43
2023-01-04T18:29:16.600Z,5.43
2023-01-04T18:29:50.488Z,7.55
2023-01-04T18:32:17.113Z,9.02
2023-01-04T18:34:16.631Z,9.02
2023-01-04T18:34:43.863Z,4.63
2023-01-04T18:37:10.229Z,4.95
2023-01-04T18:39:16.619Z,4.95
2023-01-04T18:39:36.619Z,12.85
2023-01-04T18:42:03.147Z,6.10
2023-01-04T18:44:32.784Z,6.10
2023-01-04T18:44:34.384Z,5.57
2023-01-04T18:47:02.157Z,5.78
2023-01-04T18:49:17.638Z,5.78
2023-01-04T18:49:28.505Z,4.50
2023-01-04T18:51:54.848Z,10.05
2023-01-04T18:54:16.628Z,10.05
2023-01-04T18:54:21.674Z,5.75
2023-01-04T18:56:48.835Z,5.32
2023-01-04T18:59:18.629Z,7.40
2023-01-04T18:59:18.761Z,7.40
2023-01-04T19:01:45.566Z,17.48
2023-01-04T19:04:12.815Z,6.30
2023-01-04T19:04:16.615Z,6.30
2023-01-04T19:06:40.359Z,6.25
2023-01-04T19:09:07.370Z,5.28
2023-01-04T19:09:16.624Z,5.28
2023-01-04T19:11:34.553Z,9.93
2023-01-04T19:14:01.064Z,6.75
2023-01-04T19:14:16.639Z,6.75
2023-01-04T19:16:30.867Z,5.45
2023-01-04T19:19:00.895Z,9.00
2023-01-04T19:19:16.633Z,9.00
2023-01-04T19:21:28.646Z,5.25
2023-01-04T19:23:55.487Z,6.38
2023-01-04T19:24:16.649Z,6.38
2023-01-04T19:26:21.951Z,7.13
2023-01-04T19:28:48.942Z,7.35
2023-01-04T19:29:16.635Z,7.35
2023-01-04T19:31:16.511Z,5.03
2023-01-04T19:33:43.257Z,7.70
2023-01-04T19:34:16.639Z,7.70
2023-01-04T19:36:12.285Z,6.57
2023-01-04T19:38:39.389Z,10.13
2023-01-04T19:39:16.617Z,10.13
2023-01-04T19:41:06.595Z,5.32
2023-01-04T19:43:33.816Z,11.43
2023-01-04T19:44:16.665Z,11.43
2023-01-04T19:46:00.559Z,12.73
2023-01-04T19:48:27.454Z,5.15
2023-01-04T19:49:16.652Z,5.15
2023-01-04T19:51:12.257Z,11.00
2023-01-04T19:53:39.429Z,12.68
2023-01-04T19:54:23.134Z,12.68
2023-01-04T19:56:06.525Z,9.80
2023-01-04T19:58:33.010Z,6.57
2023-01-04T19:59:16.643Z,6.57
2023-01-04T20:00:59.457Z,4.65
2023-01-04T20:03:26.367Z,6.13
2023-01-04T20:04:16.623Z,6.13
2023-01-04T20:05:52.999Z,5.00
2023-01-04T20:08:20.112Z,8.38
2023-01-04T20:09:16.621Z,8.38
2023-01-04T20:10:53.073Z,7.93
2023-01-04T20:13:19.426Z,6.45
2023-01-04T20:14:16.656Z,6.45
2023-01-04T20:15:45.864Z,6.85
2023-01-04T20:18:14.341Z,11.65
2023-01-04T20:19:16.634Z,11.65
2023-01-04T20:20:42.557Z,5.85
2023-01-04T20:23:09.755Z,6.07
2023-01-04T20:24:16.609Z,6.07
2023-01-04T20:25:47.982Z,10.30
2023-01-04T20:28:15.214Z,7.50
2023-01-04T20:29:16.614Z,7.50
2023-01-04T20:30:42.183Z,12.15
2023-01-04T20:33:09.382Z,12.52
2023-01-04T20:34:16.671Z,12.52
2023-01-04T20:35:39.573Z,9.88
2023-01-04T20:38:05.958Z,7.80
2023-01-04T20:39:16.612Z,7.80
2023-01-04T20:40:32.506Z,5.13
2023-01-04T20:43:17.475Z,8.13
2023-01-04T20:44:16.618Z,8.13
2023-01-04T20:45:45.781Z,7.63
2023-01-04T20:48:12.976Z,6.88
2023-01-04T20:49:16.623Z,6.88
2023-01-04T20:50:40.088Z,5.22
2023-01-04T20:53:07.052Z,9.60
2023-01-04T20:54:16.659Z,9.60
2023-01-04T20:55:40.096Z,4.65
2023-01-04T20:58:14.666Z,10.38
2023-01-04T20:59:16.645Z,10.38
2023-01-04T21:00:41.910Z,19.08
2023-01-04T21:03:11.037Z,14.10
2023-01-04T21:04:16.628Z,14.10
2023-01-04T21:05:43.788Z,9.15
2023-01-04T21:09:16.658Z,11.30
2023-01-04T21:10:41.524Z,7.53
2023-01-04T21:13:08.315Z,6.07
2023-01-04T21:14:16.631Z,6.07
2023-01-04T21:15:37.037Z,7.38
2023-01-04T21:18:05.649Z,7.82
2023-01-04T21:19:16.652Z,7.82
2023-01-04T21:20:32.455Z,9.82
2023-01-04T21:22:58.858Z,8.02
2023-01-04T21:24:16.641Z,8.02
2023-01-04T21:25:25.303Z,6.72
2023-01-04T21:27:54.583Z,6.70
2023-01-04T21:29:16.629Z,6.70
2023-01-04T21:30:21.131Z,5.90
2023-01-04T21:32:47.537Z,20.48
2023-01-04T21:34:22.527Z,20.48
2023-01-04T21:35:13.994Z,4.80
2023-01-04T21:37:40.567Z,9.30
2023-01-04T21:39:16.677Z,9.30
2023-01-04T21:40:07.526Z,14.73
2023-01-04T21:42:34.091Z,4.95
2023-01-04T21:44:16.750Z,4.95
2023-01-04T21:45:00.539Z,9.85
2023-01-04T21:47:30.916Z,10.80
2023-01-04T21:49:16.641Z,10.80
2023-01-04T21:49:57.648Z,10.30
2023-01-04T21:52:24.095Z,17.30
2023-01-04T21:54:16.637Z,17.30
2023-01-04T21:54:50.496Z,5.63
2023-01-04T21:57:17.133Z,12.10
2023-01-04T21:59:16.645Z,12.10
2023-01-04T21:59:43.732Z,9.15
2023-01-04T22:02:18.659Z,4.82
2023-01-04T22:04:16.769Z,4.82
2023-01-04T22:04:45.689Z,4.90
2023-01-04T22:07:12.649Z,7.82
2023-01-04T22:09:16.663Z,7.82
2023-01-04T22:09:39.328Z,7.72
2023-01-04T22:12:06.355Z,18.23
2023-01-04T22:15:03.487Z,9.00
2023-01-04T22:19:19.511Z,4.38
2023-01-04T22:20:13.902Z,5.10
2023-01-04T22:22:40.329Z,14.73
2023-01-04T22:24:16.614Z,14.73
2023-01-04T22:25:07.082Z,7.43
2023-01-04T22:27:33.449Z,5.47
2023-01-04T22:29:16.657Z,5.47
2023-01-04T22:29:59.812Z,6.05
2023-01-04T22:32:28.878Z,7.05
2023-01-04T22:34:16.700Z,7.05
2023-01-04T22:34:58.623Z,4.80
2023-01-04T22:37:27.759Z,8.30
2023-01-04T22:39:18.067Z,8.30
2023-01-04T22:39:56.978Z,9.02
2023-01-04T22:42:23.617Z,7.20
2023-01-04T22:44:17.610Z,7.20